createdAt,value
2018-06-21T00:02:02.236Z,100999.61
2018-06-21T00:04:31.325Z,101005.67
2018-06-21T00:07:00.421Z,101002.36
2018-06-21T00:09:29.537Z,101008.98
2018-06-21T00:11:58.625Z,101006.19
2018-06-21T00:14:27.709Z,100998.61
2018-06-21T00:16:56.937Z,101001.55
2018-06-21T00:19:26.104Z,100994.89
2018-06-21T00:21:55.212Z,101000.56
2018-06-21T00:24:24.749Z,100997.44
2018-06-21T00:26:53.954Z,100998.76
2018-06-21T00:29:23.097Z,100998.77
2018-06-21T00:31:52.164Z,100998.66
2018-06-21T00:34:21.586Z,100997.89
2018-06-21T00:36:50.727Z,101002.82
2018-06-21T00:39:19.881Z,101002.92
2018-06-21T00:41:48.976Z,101007.70
2018-06-21T00:44:18.073Z,101001.42
2018-06-21T00:46:47.165Z,101000.77
2018-06-21T00:49:16.258Z,101005.82
2018-06-21T00:51:45.353Z,101002.21
2018-06-21T00:54:14.517Z,101003.13
2018-06-21T00:56:43.689Z,100990.03
2018-06-21T00:59:12.970Z,100996.29
2018-06-21T01:01:42.122Z,100996.66
2018-06-21T01:04:11.227Z,100992.83
2018-06-21T01:06:40.317Z,100986.94
2018-06-21T01:09:09.458Z,100985.87
2018-06-21T01:11:38.559Z,100986.35
2018-06-21T01:14:07.637Z,100975.84
2018-06-21T01:16:36.777Z,100982.11
2018-06-21T01:19:05.898Z,100972.41
2018-06-21T01:21:35.178Z,100971.09
2018-06-21T01:24:04.634Z,100968.66
2018-06-21T01:26:33.725Z,100959.33
2018-06-21T01:29:02.807Z,100965.19
2018-06-21T01:31:31.898Z,100959.45
2018-06-21T01:34:00.985Z,100960.22
2018-06-21T01:36:30.173Z,100956.95
2018-06-21T01:38:59.309Z,100947.14
2018-06-21T01:41:28.526Z,100949.20
2018-06-21T01:43:58.344Z,100949.67
2018-06-21T01:46:27.434Z,100941.28
2018-06-21T01:48:56.545Z,100942.35
2018-06-21T01:51:25.712Z,100943.42
2018-06-21T01:53:55.014Z,100938.34
2018-06-21T01:56:24.221Z,100938.64
2018-06-21T01:58:53.314Z,100950.75
2018-06-21T02:01:22.405Z,100942.83
2018-06-21T02:03:51.501Z,100938.94
2018-06-21T02:06:20.605Z,100934.33
2018-06-21T02:08:49.710Z,100948.93
2018-06-21T02:11:19.377Z,100934.98
2018-06-21T02:13:48.490Z,100932.43
2018-06-21T02:16:17.922Z,100928.05
2018-06-21T02:18:47.138Z,100925.63
2018-06-21T02:21:16.309Z,100926.41
2018-06-21T02:23:45.449Z,100921.72
2018-06-21T02:26:14.562Z,100919.98
2018-06-21T02:28:43.697Z,100909.59
2018-06-21T02:31:12.986Z,100912.93
2018-06-21T02:33:42.105Z,100905.67
2018-06-21T02:36:11.374Z,100907.94
2018-06-21T02:38:40.603Z,100895.44
2018-06-21T02:41:09.805Z,100890.02
2018-06-21T02:43:38.931Z,100884.22
2018-06-21T02:46:08.013Z,100890.23
2018-06-21T02:48:37.131Z,100890.87
2018-06-21T02:51:06.291Z,100887.88
2018-06-21T02:53:35.465Z,100884.50
2018-06-21T02:56:04.577Z,100880.30
2018-06-21T02:58:33.785Z,100882.97
2018-06-21T03:01:02.898Z,100875.00
2018-06-21T03:03:31.981Z,100872.81
2018-06-21T03:06:01.079Z,100878.45
2018-06-21T03:08:30.339Z,100874.51
2018-06-21T03:10:59.554Z,100862.66
2018-06-21T03:13:28.750Z,100865.16
2018-06-21T03:15:57.973Z,100868.19
2018-06-21T03:18:27.165Z,100869.57
2018-06-21T03:20:56.286Z,100861.14
2018-06-21T03:23:25.393Z,100861.37
2018-06-21T03:25:54.578Z,100855.88
2018-06-21T03:28:23.669Z,100859.18
2018-06-21T03:30:52.774Z,100859.70
2018-06-21T03:33:21.861Z,100845.36
2018-06-21T03:35:50.957Z,100855.88
2018-06-21T03:38:20.037Z,100852.90
2018-06-21T03:40:49.563Z,100861.75
2018-06-21T03:43:18.642Z,100856.73
2018-06-21T03:45:47.741Z,100863.41
2018-06-21T03:48:16.820Z,100865.43
2018-06-21T03:50:45.965Z,100863.81
2018-06-21T03:53:15.089Z,100862.88
2018-06-21T03:55:44.173Z,100863.97
2018-06-21T03:58:13.365Z,100867.69
2018-06-21T04:00:42.519Z,100859.58
2018-06-21T04:03:11.905Z,100879.02
2018-06-21T04:05:41.097Z,100881.45
2018-06-21T04:08:10.277Z,100878.78
2018-06-21T04:10:39.370Z,100880.84
2018-06-21T04:13:08.453Z,100880.61
2018-06-21T04:15:37.655Z,100882.25
2018-06-21T04:18:06.799Z,100890.75
2018-06-21T04:20:36.466Z,100888.97
2018-06-21T04:23:06.184Z,100890.87
2018-06-21T04:25:35.358Z,100882.46
2018-06-21T04:28:04.453Z,100882.36
2018-06-21T04:30:33.577Z,100879.92
2018-06-21T04:33:03.300Z,100875.55
2018-06-21T04:35:32.494Z,100873.52
2018-06-21T04:38:01.574Z,100875.25
2018-06-21T04:40:30.677Z,100868.88
2018-06-21T04:42:59.841Z,100872.96
2018-06-21T04:45:28.933Z,100878.65
2018-06-21T04:47:58.029Z,100874.36
2018-06-21T04:50:27.145Z,100871.95
2018-06-21T04:52:56.269Z,100868.11
2018-06-21T04:55:25.389Z,100859.70
2018-06-21T04:57:54.553Z,100860.77
2018-06-21T05:00:23.681Z,100846.64
2018-06-21T05:02:52.776Z,100846.50
2018-06-21T05:05:21.958Z,100851.14
2018-06-21T05:07:51.057Z,100841.11
2018-06-21T05:10:20.217Z,100844.66
2018-06-21T05:12:49.309Z,100851.19
2018-06-21T05:15:18.389Z,100860.55
2018-06-21T05:17:47.517Z,100860.95
2018-06-21T05:20:16.598Z,100861.38
2018-06-21T05:22:45.709Z,100867.94
2018-06-21T05:25:14.864Z,100868.92
2018-06-21T05:27:43.882Z,100864.06
2018-06-21T05:30:13.033Z,100862.41
2018-06-21T05:32:42.129Z,100860.64
2018-06-21T05:35:11.221Z,100860.56
2018-06-21T05:37:40.330Z,100856.88
2018-06-21T05:40:19.566Z,100853.09
2018-06-21T05:42:48.645Z,100859.94
2018-06-21T05:45:17.733Z,100859.61
2018-06-21T05:47:46.842Z,100857.42
2018-06-21T05:50:16.083Z,100862.05
2018-06-21T05:52:45.114Z,100862.32
2018-06-21T05:55:14.274Z,100861.71
2018-06-21T05:57:43.570Z,100865.51
2018-06-21T06:00:12.751Z,100859.73
2018-06-21T06:02:41.882Z,100855.98
2018-06-21T06:05:11.035Z,100846.63
2018-06-21T06:07:40.133Z,100856.68
2018-06-21T06:10:09.341Z,100848.77
2018-06-21T06:12:38.352Z,100848.80
2018-06-21T06:15:07.521Z,100840.23
2018-06-21T06:17:36.678Z,100839.00
2018-06-21T06:20:05.853Z,100839.31
2018-06-21T06:22:34.935Z,100840.05
2018-06-21T06:25:04.079Z,100844.95
2018-06-21T06:27:33.266Z,100845.79
2018-06-21T06:30:02.429Z,100842.61
2018-06-21T06:32:31.518Z,100851.41
2018-06-21T06:35:00.613Z,100851.45
2018-06-21T06:37:29.722Z,100861.38
2018-06-21T06:39:58.861Z,100860.34
2018-06-21T06:42:28.026Z,100865.51
2018-06-21T06:44:57.505Z,100867.69
2018-06-21T06:47:27.265Z,100871.56
2018-06-21T06:49:56.792Z,100878.95
2018-06-21T06:52:25.986Z,100882.73
2018-06-21T06:54:55.081Z,100890.31
2018-06-21T06:57:24.249Z,100880.27
2018-06-21T06:59:53.389Z,100880.06
2018-06-21T07:02:22.506Z,100894.95
2018-06-21T07:04:51.610Z,100896.38
2018-06-21T07:07:20.897Z,100908.84
2018-06-21T07:09:50.006Z,100909.83
2018-06-21T07:12:19.129Z,100918.55
2018-06-21T07:14:48.225Z,100908.95
2018-06-21T07:17:17.341Z,100919.51
2018-06-21T07:19:46.413Z,100921.50
2018-06-21T07:22:15.513Z,100920.23
2018-06-21T07:24:44.697Z,100931.59
2018-06-21T07:27:13.915Z,100933.17
2018-06-21T07:29:42.957Z,100931.98
2018-06-21T07:32:12.094Z,100936.05
2018-06-21T07:34:41.197Z,100945.57
2018-06-21T07:37:10.294Z,100950.12
2018-06-21T07:39:39.478Z,100953.38
2018-06-21T07:42:08.658Z,100954.34
2018-06-21T07:44:37.761Z,100958.84
2018-06-21T07:47:06.857Z,100959.20
2018-06-21T07:49:36.014Z,100963.84
2018-06-21T07:52:05.192Z,100969.08
2018-06-21T07:54:34.290Z,100981.59
2018-06-21T07:57:03.386Z,100981.63
2018-06-21T07:59:32.522Z,100990.30
2018-06-21T08:02:01.610Z,100989.48
2018-06-21T08:04:30.741Z,100998.19
2018-06-21T08:06:59.845Z,100996.87
2018-06-21T08:09:28.937Z,101009.39
2018-06-21T08:11:58.097Z,101002.30
2018-06-21T08:14:27.213Z,101003.13
2018-06-21T08:16:56.334Z,101009.58
2018-06-21T08:19:25.562Z,101011.85
2018-06-21T08:21:54.657Z,101012.54
2018-06-21T08:24:23.800Z,101009.97
2018-06-21T08:26:52.896Z,101011.70
2018-06-21T08:29:22.027Z,101012.89
2018-06-21T08:31:51.198Z,101017.94
2018-06-21T08:34:20.329Z,101016.95
2018-06-21T08:36:49.425Z,101019.66
2018-06-21T08:39:18.525Z,101029.66
2018-06-21T08:41:47.633Z,101024.96
2018-06-21T08:44:16.725Z,101029.44
2018-06-21T08:46:45.882Z,101034.74
2018-06-21T08:49:15.049Z,101035.25
2018-06-21T08:51:44.241Z,101035.16
2018-06-21T08:54:13.352Z,101034.85
2018-06-21T08:56:42.458Z,101041.95
2018-06-21T08:59:11.602Z,101028.58
2018-06-21T09:01:40.807Z,101044.52
2018-06-21T09:04:09.901Z,101042.32
2018-06-21T09:06:39.027Z,101056.68
2018-06-21T09:09:09.089Z,101052.80
2018-06-21T09:11:38.355Z,101051.64
2018-06-21T09:14:07.469Z,101059.94
2018-06-21T09:16:36.577Z,101066.69
2018-06-21T09:19:05.689Z,101056.25
2018-06-21T09:21:34.841Z,101071.64
2018-06-21T09:24:04.025Z,101066.89
2018-06-21T09:26:33.121Z,101084.26
2018-06-21T09:29:02.202Z,101064.70
2018-06-21T09:31:31.286Z,101070.75
2018-06-21T09:34:00.381Z,101085.89
2018-06-21T09:36:33.659Z,101091.52
2018-06-21T09:39:07.851Z,101100.84
2018-06-21T09:41:42.333Z,101106.44
2018-06-21T09:44:16.816Z,101109.59
2018-06-21T09:46:51.085Z,101126.88
2018-06-21T09:49:20.229Z,101117.83
2018-06-21T09:51:49.398Z,101114.66
2018-06-21T09:54:18.502Z,101122.14
2018-06-21T09:56:47.646Z,101130.89
2018-06-21T09:59:16.830Z,101112.86
2018-06-21T10:01:45.925Z,101125.77
2018-06-21T10:04:15.105Z,101131.69
2018-06-21T10:06:44.205Z,101129.51
2018-06-21T10:09:13.321Z,101127.36
2018-06-21T10:11:42.510Z,101122.15
2018-06-21T10:14:11.597Z,101128.58
2018-06-21T10:16:40.693Z,101130.60
2018-06-21T10:19:09.881Z,101138.31
2018-06-21T10:21:39.109Z,101125.37
2018-06-21T10:24:08.193Z,101128.59
2018-06-21T10:26:37.321Z,101128.41
2018-06-21T10:29:06.489Z,101128.09
2018-06-21T10:31:35.716Z,101131.31
2018-06-21T10:34:04.805Z,101133.14
2018-06-21T10:36:33.936Z,101132.61
2018-06-21T10:39:03.153Z,101141.80
2018-06-21T10:41:32.238Z,101142.56
2018-06-21T10:44:01.334Z,101151.05
2018-06-21T10:46:30.445Z,101163.05
2018-06-21T10:48:59.605Z,101148.23
2018-06-21T10:51:28.854Z,101137.20
2018-06-21T10:53:57.989Z,101154.72
2018-06-21T10:56:27.133Z,101141.45
2018-06-21T10:58:56.275Z,101137.90
2018-06-21T11:01:25.685Z,101150.52
2018-06-21T11:03:54.881Z,101157.58
2018-06-21T11:06:24.221Z,101166.43
2018-06-21T11:08:53.373Z,101162.94
2018-06-21T11:11:22.557Z,101162.41
2018-06-21T11:13:51.742Z,101165.75
2018-06-21T11:16:20.834Z,101176.17
2018-06-21T11:18:49.946Z,101180.66
2018-06-21T11:21:19.896Z,101183.88
2018-06-21T11:23:49.034Z,101184.83
2018-06-21T11:26:18.182Z,101186.23
2018-06-21T11:28:47.454Z,101185.52
2018-06-21T11:31:16.621Z,101187.42
2018-06-21T11:33:45.733Z,101206.00
2018-06-21T11:36:14.845Z,101209.41
2018-06-21T11:38:43.981Z,101192.19
2018-06-21T11:41:13.394Z,101212.21
2018-06-21T11:43:42.490Z,101203.28
2018-06-21T11:46:11.594Z,101205.19
2018-06-21T11:48:40.923Z,101204.53
2018-06-21T11:51:10.014Z,101208.71
2018-06-21T11:53:39.138Z,101206.70
2018-06-21T11:56:08.317Z,101204.97
2018-06-21T11:58:37.413Z,101215.20
2018-06-21T12:01:06.517Z,101227.36
2018-06-21T12:03:35.654Z,101225.59
2018-06-21T12:06:04.766Z,101216.23
2018-06-21T12:08:33.888Z,101216.06
2018-06-21T12:11:03.002Z,101222.63
2018-06-21T12:13:32.116Z,101227.53
2018-06-21T12:16:01.199Z,101233.61
2018-06-21T12:18:30.301Z,101241.58
2018-06-21T12:20:59.458Z,101234.94
2018-06-21T12:23:28.565Z,101243.59
2018-06-21T12:25:57.664Z,101229.99
2018-06-21T12:28:26.812Z,101241.55
2018-06-21T12:30:55.938Z,101267.37
2018-06-21T12:33:25.078Z,101246.78
2018-06-21T12:35:54.174Z,101242.91
2018-06-21T12:38:23.347Z,101240.53
2018-06-21T12:40:52.465Z,101241.90
2018-06-21T12:43:21.618Z,101253.65
2018-06-21T12:45:50.726Z,101251.91
2018-06-21T12:48:19.817Z,101243.05
2018-06-21T12:50:48.944Z,101254.98
2018-06-21T12:53:18.074Z,101258.26
2018-06-21T12:55:47.154Z,101259.70
2018-06-21T12:58:16.306Z,101265.82
2018-06-21T13:00:45.445Z,101266.84
2018-06-21T13:03:14.595Z,101266.92
2018-06-21T13:05:43.693Z,101261.58
2018-06-21T13:08:18.502Z,101265.27
2018-06-21T13:10:58.873Z,101264.13
2018-06-21T13:13:28.395Z,101271.19
2018-06-21T13:15:57.566Z,101293.09
2018-06-21T13:18:26.682Z,101290.56
2018-06-21T13:20:55.771Z,101278.68
2018-06-21T13:23:28.485Z,101289.05
2018-06-21T13:25:57.623Z,101279.69
2018-06-21T13:28:26.801Z,101297.40
2018-06-21T13:30:55.889Z,101301.30
2018-06-21T13:33:24.999Z,101297.81
2018-06-21T13:35:54.149Z,101299.08
2018-06-21T13:38:23.253Z,101313.80
2018-06-21T13:40:52.352Z,101298.38
2018-06-21T13:43:21.436Z,101302.73
2018-06-21T13:45:50.637Z,101321.59
2018-06-21T13:48:19.725Z,101312.39
2018-06-21T13:50:48.897Z,101307.34
2018-06-21T13:53:18.026Z,101316.13
2018-06-21T13:55:47.135Z,101311.95
2018-06-21T13:58:16.287Z,101319.53
2018-06-21T14:00:45.377Z,101323.48
2018-06-21T14:03:14.485Z,101322.83
2018-06-21T14:05:43.569Z,101322.97
2018-06-21T14:08:12.715Z,101324.95
2018-06-21T14:10:41.825Z,101325.38
2018-06-21T14:13:10.926Z,101330.47
2018-06-21T14:15:40.070Z,101337.34
2018-06-21T14:18:09.281Z,101343.41
2018-06-21T14:20:38.475Z,101339.33
2018-06-21T14:23:07.509Z,101333.86
2018-06-21T14:25:36.642Z,101338.91
2018-06-21T14:28:05.781Z,101352.36
2018-06-21T14:30:36.064Z,101349.03
2018-06-21T14:33:09.432Z,101348.89
2018-06-21T14:35:38.601Z,101353.65
2018-06-21T14:38:07.753Z,101364.20
2018-06-21T14:40:36.949Z,101358.06
2018-06-21T14:43:06.488Z,101373.11
2018-06-21T14:45:35.574Z,101385.69
2018-06-21T14:48:04.867Z,101379.36
2018-06-21T14:50:33.947Z,101383.66
2018-06-21T14:53:03.137Z,101386.94
2018-06-21T14:55:32.269Z,101386.19
2018-06-21T14:58:01.608Z,101395.52
2018-06-21T15:00:31.569Z,101390.33
2018-06-21T15:03:00.778Z,101390.19
2018-06-21T15:05:29.969Z,101383.48
2018-06-21T15:07:59.131Z,101392.98
2018-06-21T15:10:28.248Z,101398.09
2018-06-21T15:12:57.438Z,101393.64
2018-06-21T15:15:26.690Z,101413.18
2018-06-21T15:17:55.785Z,101409.32
2018-06-21T15:20:27.045Z,101410.77
2018-06-21T15:22:56.189Z,101414.50
2018-06-21T15:25:25.394Z,101417.81
2018-06-21T15:27:55.636Z,101417.77
2018-06-21T15:30:24.836Z,101425.67
2018-06-21T15:32:53.977Z,101437.36
2018-06-21T15:35:23.157Z,101420.50
2018-06-21T15:37:52.339Z,101436.02
2018-06-21T15:40:21.435Z,101451.21
2018-06-21T15:42:50.590Z,101448.28
2018-06-21T15:45:19.730Z,101447.92
2018-06-21T15:47:48.765Z,101452.62
2018-06-21T15:50:17.858Z,101445.60
2018-06-21T15:52:47.318Z,101456.31
2018-06-21T15:55:16.753Z,101458.81
2018-06-21T15:57:45.849Z,101467.06
2018-06-21T16:00:14.940Z,101463.26
2018-06-21T16:02:44.137Z,101469.16
2018-06-21T16:05:13.342Z,101477.28
2018-06-21T16:07:42.425Z,101469.95
2018-06-21T16:10:11.533Z,101475.78
2018-06-21T16:12:40.638Z,101480.74
2018-06-21T16:15:09.768Z,101484.29
2018-06-21T16:17:38.986Z,101480.98
2018-06-21T16:20:08.076Z,101489.98
2018-06-21T16:22:37.207Z,101487.95
2018-06-21T16:25:06.317Z,101501.23
2018-06-21T16:27:35.401Z,101500.87
2018-06-21T16:30:04.746Z,101508.92
2018-06-21T16:32:33.899Z,101504.66
2018-06-21T16:35:03.033Z,101510.90
2018-06-21T16:37:32.185Z,101512.55
2018-06-21T16:40:01.789Z,101518.44
2018-06-21T16:42:31.131Z,101513.55
2018-06-21T16:45:00.338Z,101512.83
2018-06-21T16:47:29.508Z,101514.47
2018-06-21T16:49:58.604Z,101520.90
2018-06-21T16:52:27.849Z,101518.89
2018-06-21T16:54:57.038Z,101518.92
2018-06-21T16:57:26.155Z,101522.27
2018-06-21T16:59:55.257Z,101523.75
2018-06-21T17:02:24.406Z,101537.28
2018-06-21T17:04:53.529Z,101538.44
2018-06-21T17:07:22.645Z,101544.95
2018-06-21T17:09:51.782Z,101542.13
2018-06-21T17:12:20.898Z,101542.08
2018-06-21T17:14:50.014Z,101547.92
2018-06-21T17:17:19.146Z,101551.42
2018-06-21T17:19:48.870Z,101547.21
2018-06-21T17:22:18.017Z,101555.25
2018-06-21T17:24:47.121Z,101551.05
2018-06-21T17:27:16.333Z,101543.13
2018-06-21T17:29:45.421Z,101556.27
2018-06-21T17:32:14.533Z,101551.08
2018-06-21T17:34:43.651Z,101559.08
2018-06-21T17:37:12.786Z,101550.92
2018-06-21T17:39:41.865Z,101551.39
2018-06-21T17:42:10.954Z,101555.37
2018-06-21T17:44:40.033Z,101559.21
2018-06-21T17:47:09.165Z,101558.53
2018-06-21T17:49:38.241Z,101560.07
2018-06-21T17:52:07.375Z,101558.87
2018-06-21T17:54:36.485Z,101564.61
2018-06-21T17:57:05.621Z,101563.84
2018-06-21T17:59:34.725Z,101573.48
2018-06-21T18:02:03.926Z,101564.30
2018-06-21T18:04:33.005Z,101571.45
2018-06-21T18:07:02.137Z,101568.00
2018-06-21T18:09:31.410Z,101578.63
2018-06-21T18:12:00.553Z,101574.24
2018-06-21T18:14:29.968Z,101582.06
2018-06-21T18:16:59.069Z,101593.20
2018-06-21T18:19:28.310Z,101591.84
2018-06-21T18:21:57.437Z,101600.29
2018-06-21T18:24:26.654Z,101601.91
2018-06-21T18:26:55.760Z,101596.41
2018-06-21T18:29:24.841Z,101601.41
2018-06-21T18:31:54.381Z,101605.39
2018-06-21T18:34:23.499Z,101606.82
2018-06-21T18:36:52.603Z,101604.28
2018-06-21T18:39:21.729Z,101607.78
2018-06-21T18:41:50.813Z,101617.00
2018-06-21T18:44:19.929Z,101614.97
2018-06-21T18:46:49.021Z,101615.73
2018-06-21T18:49:18.108Z,101611.84
2018-06-21T18:51:47.194Z,101605.12
2018-06-21T18:54:16.328Z,101609.88
2018-06-21T18:56:45.451Z,101616.05
2018-06-21T18:59:14.582Z,101614.17
2018-06-21T19:01:43.729Z,101619.34
2018-06-21T19:04:13.470Z,101613.37
2018-06-21T19:06:49.453Z,101614.64
2018-06-21T19:09:23.797Z,101620.50
2018-06-21T19:11:55.748Z,101622.11
2018-06-21T19:14:24.853Z,101626.08
2018-06-21T19:16:53.949Z,101622.18
2018-06-21T19:19:23.076Z,101632.64
2018-06-21T19:21:52.230Z,101631.80
2018-06-21T19:24:21.358Z,101635.19
2018-06-21T19:26:50.453Z,101634.79
2018-06-21T19:29:19.570Z,101632.93
2018-06-21T19:31:48.653Z,101644.56
2018-06-21T19:34:17.753Z,101644.94
2018-06-21T19:36:46.837Z,101650.34
2018-06-21T19:39:15.953Z,101652.47
2018-06-21T19:41:45.086Z,101643.81
2018-06-21T19:44:14.163Z,101645.06
2018-06-21T19:46:43.253Z,101641.54
2018-06-21T19:49:12.425Z,101648.53
2018-06-21T19:51:41.702Z,101650.39
2018-06-21T19:54:10.976Z,101650.05
2018-06-21T19:56:40.050Z,101652.25
2018-06-21T19:59:09.155Z,101660.44
2018-06-21T20:01:38.225Z,101660.55
2018-06-21T20:04:07.318Z,101665.51
2018-06-21T20:06:36.462Z,101664.66
2018-06-21T20:09:08.173Z,101676.84
2018-06-21T20:11:38.345Z,101678.55
2018-06-21T20:14:07.431Z,101683.41
2018-06-21T20:16:36.525Z,101675.06
2018-06-21T20:19:10.086Z,101684.72
2018-06-21T20:21:39.248Z,101680.45
2018-06-21T20:24:08.634Z,101683.48
2018-06-21T20:26:37.734Z,101694.89
2018-06-21T20:29:12.145Z,101687.56
2018-06-21T20:31:41.541Z,101692.78
2018-06-21T20:34:10.690Z,101698.91
2018-06-21T20:36:39.805Z,101699.34
2018-06-21T20:39:10.276Z,101707.19
2018-06-21T20:41:39.380Z,101712.43
2018-06-21T20:44:08.514Z,101717.28
2018-06-21T20:46:37.578Z,101722.91
2018-06-21T20:49:06.705Z,101709.47
2018-06-21T20:51:35.792Z,101712.95
2018-06-21T20:54:04.945Z,101725.59
2018-06-21T20:56:34.099Z,101716.39
2018-06-21T20:59:03.225Z,101727.81
2018-06-21T21:01:32.296Z,101729.52
2018-06-21T21:04:01.362Z,101729.14
2018-06-21T21:06:30.409Z,101734.77
2018-06-21T21:08:59.474Z,101738.25
2018-06-21T21:11:28.513Z,101743.52
2018-06-21T21:13:57.569Z,101736.55
2018-06-21T21:16:26.625Z,101745.27
2018-06-21T21:18:55.713Z,101743.93
2018-06-21T21:21:24.757Z,101744.38
2018-06-21T21:23:53.898Z,101742.64
2018-06-21T21:26:23.487Z,101751.81
2018-06-21T21:28:52.653Z,101756.63
2018-06-21T21:31:21.705Z,101753.14
2018-06-21T21:33:50.799Z,101751.84
2018-06-21T21:36:19.877Z,101750.53
2018-06-21T21:38:49.612Z,101750.98
2018-06-21T21:41:18.682Z,101761.86
2018-06-21T21:43:47.838Z,101758.80
2018-06-21T21:46:16.897Z,101763.59
2018-06-21T21:48:46.076Z,101763.59
2018-06-21T21:51:15.169Z,101762.28
2018-06-21T21:53:44.596Z,101761.86
2018-06-21T21:56:13.669Z,101768.38
2018-06-21T21:58:42.717Z,101770.53
2018-06-21T22:01:11.791Z,101779.58
2018-06-21T22:03:40.841Z,101774.90
2018-06-21T22:06:09.889Z,101772.28
2018-06-21T22:08:39.069Z,101774.45
2018-06-21T22:11:08.139Z,101777.50
2018-06-21T22:13:37.193Z,101776.59
2018-06-21T22:16:06.253Z,101785.23
2018-06-21T22:18:35.301Z,101782.19
2018-06-21T22:21:04.345Z,101780.47
2018-06-21T22:23:33.402Z,101779.13
2018-06-21T22:26:02.441Z,101789.60
2018-06-21T22:28:31.516Z,101789.47
2018-06-21T22:31:00.565Z,101782.98
2018-06-21T22:33:29.879Z,101789.11
2018-06-21T22:35:58.984Z,101783.55
2018-06-21T22:38:28.140Z,101786.06
2018-06-21T22:40:57.157Z,101788.28
2018-06-21T22:43:26.197Z,101785.25
2018-06-21T22:45:55.257Z,101789.11
2018-06-21T22:48:24.309Z,101783.81
2018-06-21T22:50:53.422Z,101791.30
2018-06-21T22:53:22.533Z,101792.52
2018-06-21T22:55:51.628Z,101789.47
2018-06-21T22:58:20.685Z,101787.69
2018-06-21T23:00:49.737Z,101791.12
2018-06-21T23:03:18.802Z,101794.64
2018-06-21T23:05:47.865Z,101793.37
2018-06-21T23:08:16.913Z,101788.98
2018-06-21T23:10:45.969Z,101787.70
2018-06-21T23:13:15.011Z,101791.20
2018-06-21T23:15:44.093Z,101795.05
2018-06-21T23:18:19.273Z,101789.34
2018-06-21T23:20:48.321Z,101792.50
2018-06-21T23:23:17.479Z,101791.50
2018-06-21T23:25:46.537Z,101794.92
2018-06-21T23:28:15.602Z,101791.03
2018-06-21T23:30:44.705Z,101793.75
2018-06-21T23:33:13.762Z,101795.92
2018-06-21T23:35:42.942Z,101798.15
2018-06-21T23:38:12.010Z,101802.55
2018-06-21T23:40:41.053Z,101796.41
2018-06-21T23:43:10.109Z,101808.55
2018-06-21T23:45:40.037Z,101799.31
2018-06-21T23:48:09.093Z,101790.30
2018-06-21T23:50:38.170Z,101790.28
2018-06-21T23:53:07.229Z,101790.30
2018-06-21T23:55:36.294Z,101801.89
2018-06-21T23:58:05.797Z,101801.95
